createdAt,value
2022-10-26T00:00:03.517Z,979.98
2022-10-26T00:01:03.779Z,980.10
2022-10-26T00:02:03.905Z,979.98
2022-10-26T00:03:03.650Z,979.83
2022-10-26T00:04:03.712Z,979.96
2022-10-26T00:05:03.662Z,979.99
2022-10-26T00:06:03.646Z,979.98
2022-10-26T00:07:03.627Z,979.83
2022-10-26T00:08:03.668Z,979.77
2022-10-26T00:09:03.663Z,980.04
2022-10-26T00:10:03.929Z,979.80
2022-10-26T00:11:02.911Z,979.87
2022-10-26T00:12:02.977Z,979.77
2022-10-26T00:13:03.045Z,979.99
2022-10-26T00:14:03.106Z,979.85
2022-10-26T00:15:03.250Z,979.87
2022-10-26T00:16:03.259Z,979.90
2022-10-26T00:17:03.371Z,979.93
2022-10-26T00:18:03.356Z,979.83
2022-10-26T00:19:03.505Z,980.01
2022-10-26T00:20:03.549Z,979.87
2022-10-26T00:21:03.511Z,979.85
2022-10-26T00:22:03.613Z,979.96
2022-10-26T00:23:03.571Z,979.93
2022-10-26T00:24:03.237Z,979.96
2022-10-26T00:25:03.244Z,979.96
2022-10-26T00:26:03.206Z,980.02
2022-10-26T00:27:03.292Z,979.90
2022-10-26T00:28:03.278Z,979.96
2022-10-26T00:29:03.307Z,979.90
2022-10-26T00:30:03.206Z,979.87
2022-10-26T00:31:03.118Z,980.02
2022-10-26T00:32:03.180Z,979.96
2022-10-26T00:33:03.097Z,979.90
2022-10-26T00:34:03.204Z,980.04
2022-10-26T00:35:21.584Z,979.93
2022-10-26T00:36:03.178Z,980.02
2022-10-26T00:37:03.132Z,979.90
2022-10-26T00:38:03.205Z,979.96
2022-10-26T00:39:03.088Z,980.02
2022-10-26T00:40:03.166Z,980.07
2022-10-26T00:41:03.828Z,980.13
2022-10-26T00:42:03.842Z,979.93
2022-10-26T00:43:02.951Z,980.02
2022-10-26T00:44:03.134Z,980.13
2022-10-26T00:45:03.063Z,980.07
2022-10-26T00:46:03.070Z,980.07
2022-10-26T00:47:02.999Z,979.93
2022-10-26T00:48:02.932Z,979.96
2022-10-26T00:49:02.948Z,980.07
2022-10-26T00:50:02.948Z,979.96
2022-10-26T00:51:02.980Z,980.13
2022-10-26T00:52:03.054Z,980.02
2022-10-26T00:53:02.930Z,979.96
2022-10-26T00:54:02.971Z,980.05
2022-10-26T00:55:03.852Z,979.99
2022-10-26T00:56:03.864Z,980.07
2022-10-26T00:57:03.312Z,980.07
2022-10-26T00:58:03.289Z,980.05
2022-10-26T00:59:03.316Z,979.96
2022-10-26T01:00:03.287Z,979.88
2022-10-26T01:01:03.340Z,980.05
2022-10-26T01:02:03.279Z,980.13
2022-10-26T01:03:03.125Z,980.02
2022-10-26T01:04:03.263Z,979.96
2022-10-26T01:05:03.138Z,979.86
2022-10-26T01:06:03.100Z,979.99
2022-10-26T01:07:03.364Z,979.96
2022-10-26T01:08:03.366Z,979.83
2022-10-26T01:09:03.361Z,979.96
2022-10-26T01:10:03.256Z,980.05
2022-10-26T01:11:03.265Z,979.88
2022-10-26T01:12:03.333Z,979.93
2022-10-26T01:13:03.284Z,979.88
2022-10-26T01:14:03.364Z,979.99
2022-10-26T01:15:03.341Z,979.91
2022-10-26T01:16:03.310Z,980.02
2022-10-26T01:18:03.753Z,980.02
2022-10-26T01:19:03.807Z,979.99
2022-10-26T01:20:03.781Z,979.96
2022-10-26T01:21:03.784Z,979.91
2022-10-26T01:22:03.841Z,980.05
2022-10-26T01:23:03.757Z,979.97
2022-10-26T01:24:03.800Z,979.94
2022-10-26T01:25:03.818Z,979.94
2022-10-26T01:26:02.988Z,979.94
2022-10-26T01:27:03.954Z,980.02
2022-10-26T01:28:03.965Z,979.88
2022-10-26T01:29:03.878Z,979.94
2022-10-26T01:30:03.804Z,979.97
2022-10-26T01:31:02.891Z,979.88
2022-10-26T01:32:03.561Z,979.94
2022-10-26T01:33:03.605Z,979.88
2022-10-26T01:34:03.672Z,979.88
2022-10-26T01:35:03.849Z,979.81
2022-10-26T01:36:03.892Z,979.86
2022-10-26T01:37:03.827Z,979.81
2022-10-26T01:38:02.900Z,979.75
2022-10-26T01:39:02.946Z,979.86
2022-10-26T01:40:02.923Z,979.78
2022-10-26T01:41:03.003Z,979.81
2022-10-26T01:42:03.003Z,979.72
2022-10-26T01:43:03.036Z,979.66
2022-10-26T01:44:02.927Z,979.69
2022-10-26T01:45:02.865Z,979.66
2022-10-26T01:46:03.962Z,979.58
2022-10-26T01:47:03.832Z,979.55
2022-10-26T01:48:03.876Z,979.55
2022-10-26T01:49:03.829Z,979.69
2022-10-26T01:50:03.772Z,979.61
2022-10-26T01:51:03.098Z,979.55
2022-10-26T01:52:03.140Z,979.72
2022-10-26T01:53:03.195Z,979.63
2022-10-26T01:54:03.044Z,979.69
2022-10-26T01:55:03.033Z,979.64
2022-10-26T01:56:03.056Z,979.61
2022-10-26T01:57:03.132Z,979.52
2022-10-26T01:58:03.199Z,979.41
2022-10-26T01:59:02.930Z,979.58
2022-10-26T02:00:03.931Z,979.52
2022-10-26T02:01:03.988Z,979.44
2022-10-26T02:02:02.950Z,979.55
2022-10-26T02:03:02.983Z,979.46
2022-10-26T02:04:03.579Z,979.46
2022-10-26T02:05:03.512Z,979.46
2022-10-26T02:06:02.908Z,979.49
2022-10-26T02:07:03.881Z,979.46
2022-10-26T02:08:03.059Z,979.35
2022-10-26T02:09:02.951Z,979.41
2022-10-26T02:10:02.968Z,979.55
2022-10-26T02:11:02.968Z,979.58
2022-10-26T02:12:02.979Z,979.61
2022-10-26T02:13:02.972Z,979.52
2022-10-26T02:14:03.033Z,979.49
2022-10-26T02:15:02.911Z,979.44
2022-10-26T02:16:02.908Z,979.46
2022-10-26T02:17:03.027Z,979.44
2022-10-26T02:18:03.156Z,979.44
2022-10-26T02:19:03.052Z,979.44
2022-10-26T02:20:03.149Z,979.35
2022-10-26T02:21:03.379Z,979.49
2022-10-26T02:22:03.322Z,979.29
2022-10-26T02:23:03.356Z,979.44
2022-10-26T02:24:03.433Z,979.44
2022-10-26T02:25:03.295Z,979.38
2022-10-26T02:26:03.299Z,979.35
2022-10-26T02:27:03.365Z,979.32
2022-10-26T02:28:03.291Z,979.35
2022-10-26T02:29:03.320Z,979.41
2022-10-26T02:30:03.275Z,979.41
2022-10-26T02:31:03.320Z,979.47
2022-10-26T02:32:03.251Z,979.52
2022-10-26T02:33:03.252Z,979.49
2022-10-26T02:34:03.315Z,979.47
2022-10-26T02:35:03.350Z,979.41
2022-10-26T02:36:03.591Z,979.49
2022-10-26T02:37:03.514Z,979.49
2022-10-26T02:38:03.627Z,979.44
2022-10-26T02:39:03.640Z,979.38
2022-10-26T02:40:03.557Z,979.41
2022-10-26T02:41:03.505Z,979.41
2022-10-26T02:42:03.709Z,979.30
2022-10-26T02:43:03.732Z,979.44
2022-10-26T02:44:03.686Z,979.50
2022-10-26T02:45:03.636Z,979.50
2022-10-26T02:46:03.598Z,979.50
2022-10-26T02:47:03.646Z,979.50
2022-10-26T02:48:03.693Z,979.33
2022-10-26T02:49:03.662Z,979.56
2022-10-26T02:50:03.742Z,979.41
2022-10-26T02:51:03.639Z,979.39
2022-10-26T02:52:03.760Z,979.36
2022-10-26T02:53:03.825Z,979.44
2022-10-26T02:54:03.836Z,979.50
2022-10-26T02:55:03.875Z,979.44
2022-10-26T02:56:03.879Z,979.33
2022-10-26T02:57:03.029Z,979.50
2022-10-26T02:58:03.142Z,979.47
2022-10-26T02:59:03.102Z,979.47
2022-10-26T03:00:03.129Z,979.59
2022-10-26T03:01:03.176Z,979.50
2022-10-26T03:02:02.933Z,979.62
2022-10-26T03:03:02.926Z,979.53
2022-10-26T03:04:03.275Z,979.39
2022-10-26T03:05:03.167Z,979.39
2022-10-26T03:06:03.212Z,979.28
2022-10-26T03:07:03.189Z,979.39
2022-10-26T03:08:03.164Z,979.39
2022-10-26T03:09:03.073Z,979.42
2022-10-26T03:10:03.041Z,979.48
2022-10-26T03:11:03.083Z,979.39
2022-10-26T03:12:03.126Z,979.42
2022-10-26T03:13:03.221Z,979.45
2022-10-26T03:14:03.206Z,979.51
2022-10-26T03:15:03.175Z,979.48
2022-10-26T03:16:03.314Z,979.51
2022-10-26T03:17:03.355Z,979.48
2022-10-26T03:18:03.280Z,979.48
2022-10-26T03:19:03.267Z,979.43
2022-10-26T03:20:03.414Z,979.43
2022-10-26T03:21:03.383Z,979.46
2022-10-26T03:22:03.400Z,979.54
2022-10-26T03:23:03.336Z,979.49
2022-10-26T03:24:03.311Z,979.46
2022-10-26T03:25:03.383Z,979.52
2022-10-26T03:26:03.304Z,979.32
2022-10-26T03:27:03.208Z,979.40
2022-10-26T03:28:03.206Z,979.46
2022-10-26T03:29:03.219Z,979.40
2022-10-26T03:30:03.228Z,979.32
2022-10-26T03:31:03.194Z,979.35
2022-10-26T03:32:03.204Z,979.29
2022-10-26T03:33:03.340Z,979.35
2022-10-26T03:34:03.390Z,979.52
2022-10-26T03:35:03.365Z,979.43
2022-10-26T03:36:03.476Z,979.38
2022-10-26T03:37:03.428Z,979.38
2022-10-26T03:38:03.401Z,979.29
2022-10-26T03:39:03.460Z,979.38
2022-10-26T03:40:03.523Z,979.29
2022-10-26T03:41:03.533Z,979.32
2022-10-26T03:42:03.524Z,979.32
2022-10-26T03:43:03.651Z,979.29
2022-10-26T03:44:03.697Z,979.35
2022-10-26T03:45:03.780Z,979.24
2022-10-26T03:46:03.710Z,979.44
2022-10-26T03:47:03.723Z,979.35
2022-10-26T03:48:02.887Z,979.30
2022-10-26T03:49:03.895Z,979.18
2022-10-26T03:50:03.792Z,979.27
2022-10-26T03:51:03.902Z,979.32
2022-10-26T03:52:03.856Z,979.27
2022-10-26T03:53:03.861Z,979.24
2022-10-26T03:54:03.843Z,979.30
2022-10-26T03:55:02.985Z,979.13
2022-10-26T03:56:02.901Z,979.15
2022-10-26T03:57:03.891Z,979.33
2022-10-26T03:58:03.832Z,979.27
2022-10-26T03:59:02.983Z,979.30
2022-10-26T04:00:02.948Z,979.21
2022-10-26T04:01:03.032Z,979.35
2022-10-26T04:02:03.004Z,979.27
2022-10-26T04:03:03.056Z,979.21
2022-10-26T04:04:03.044Z,979.27
2022-10-26T04:05:02.995Z,979.21
2022-10-26T04:06:03.022Z,979.24
2022-10-26T04:07:03.023Z,979.21
2022-10-26T04:08:03.119Z,979.27
2022-10-26T04:09:03.106Z,979.24
2022-10-26T04:10:03.114Z,979.18
2022-10-26T04:11:05.101Z,979.30
2022-10-26T04:12:03.005Z,979.24
2022-10-26T04:13:03.091Z,979.35
2022-10-26T04:14:03.021Z,979.33
2022-10-26T04:16:03.058Z,979.18
2022-10-26T04:17:03.189Z,979.21
2022-10-26T04:18:03.120Z,979.33
2022-10-26T04:19:03.215Z,979.21
2022-10-26T04:20:03.205Z,979.30
2022-10-26T04:21:03.200Z,979.24
2022-10-26T04:22:03.093Z,979.33
2022-10-26T04:23:03.074Z,979.13
2022-10-26T04:24:03.054Z,979.21
2022-10-26T04:25:03.321Z,979.21
2022-10-26T04:26:03.345Z,979.16
2022-10-26T04:27:03.392Z,979.18
2022-10-26T04:28:03.386Z,979.30
2022-10-26T04:29:03.347Z,979.35
2022-10-26T04:30:03.476Z,979.01
2022-10-26T04:31:03.452Z,979.18
2022-10-26T04:32:03.547Z,979.15
2022-10-26T04:33:03.517Z,979.12
2022-10-26T04:34:03.577Z,979.18
2022-10-26T04:35:03.573Z,979.18
2022-10-26T04:36:03.651Z,979.21
2022-10-26T04:37:03.658Z,979.12
2022-10-26T04:38:03.667Z,979.04
2022-10-26T04:39:03.722Z,979.04
2022-10-26T04:40:03.886Z,979.06
2022-10-26T04:41:03.792Z,979.09
2022-10-26T04:42:03.853Z,979.09
2022-10-26T04:43:03.779Z,978.98
2022-10-26T04:44:03.808Z,978.95
2022-10-26T04:45:03.868Z,979.09
2022-10-26T04:46:03.753Z,978.92
2022-10-26T04:47:03.757Z,978.95
2022-10-26T04:48:02.901Z,979.00
2022-10-26T04:49:02.910Z,979.15
2022-10-26T04:50:03.874Z,979.12
2022-10-26T04:51:03.829Z,979.00
2022-10-26T04:52:03.904Z,978.92
2022-10-26T04:53:03.778Z,978.97
2022-10-26T04:54:03.797Z,979.03
2022-10-26T04:55:03.739Z,979.14
2022-10-26T04:56:03.665Z,979.03
2022-10-26T04:57:03.160Z,979.17
2022-10-26T04:58:03.382Z,978.91
2022-10-26T04:59:03.263Z,979.05
2022-10-26T05:00:03.763Z,978.97
2022-10-26T05:01:04.239Z,979.05
2022-10-26T05:02:04.184Z,979.00
2022-10-26T05:03:03.002Z,978.94
2022-10-26T05:04:02.981Z,978.97
2022-10-26T05:06:03.099Z,978.97
2022-10-26T05:07:03.202Z,978.88
2022-10-26T05:08:03.260Z,979.05
2022-10-26T05:09:03.267Z,978.99
2022-10-26T05:10:03.378Z,978.99
2022-10-26T05:11:03.352Z,978.91
2022-10-26T05:12:03.384Z,979.08
2022-10-26T05:13:03.348Z,979.02
2022-10-26T05:14:03.399Z,979.10
2022-10-26T05:15:08.642Z,978.91
2022-10-26T05:16:03.318Z,979.02
2022-10-26T05:17:03.270Z,979.02
2022-10-26T05:18:03.335Z,978.82
2022-10-26T05:19:03.385Z,978.96
2022-10-26T05:20:03.514Z,979.04
2022-10-26T05:21:03.477Z,978.93
2022-10-26T05:22:03.504Z,978.93
2022-10-26T05:23:03.594Z,979.07
2022-10-26T05:24:03.580Z,978.96
2022-10-26T05:25:03.628Z,978.93
2022-10-26T05:26:03.742Z,979.04
2022-10-26T05:27:03.741Z,978.90
2022-10-26T05:28:03.797Z,979.01
2022-10-26T05:29:03.779Z,979.07
2022-10-26T05:30:03.953Z,979.01
2022-10-26T05:31:03.887Z,979.09
2022-10-26T05:32:02.892Z,979.07
2022-10-26T05:33:03.243Z,979.07
2022-10-26T05:34:03.163Z,978.89
2022-10-26T05:35:03.158Z,978.92
2022-10-26T05:36:03.220Z,979.04
2022-10-26T05:37:03.334Z,978.95
2022-10-26T05:38:03.281Z,979.04
2022-10-26T05:39:03.362Z,979.03
2022-10-26T05:40:03.383Z,978.95
2022-10-26T05:41:03.303Z,979.03
2022-10-26T05:42:03.445Z,979.00
2022-10-26T05:43:03.444Z,979.03
2022-10-26T05:44:03.490Z,979.06
2022-10-26T05:45:03.551Z,978.98
2022-10-26T05:46:03.656Z,979.09
2022-10-26T05:47:03.649Z,979.20
2022-10-26T05:48:03.734Z,979.06
2022-10-26T05:49:03.804Z,978.92
2022-10-26T05:50:03.759Z,979.03
2022-10-26T05:51:03.768Z,979.14
2022-10-26T05:52:03.759Z,979.14
2022-10-26T05:53:03.736Z,979.14
2022-10-26T05:54:03.522Z,979.14
2022-10-26T05:55:03.797Z,979.14
2022-10-26T05:56:08.639Z,979.17
2022-10-26T05:57:03.667Z,979.09
2022-10-26T05:58:03.733Z,979.14
2022-10-26T05:59:03.580Z,978.97
2022-10-26T06:00:03.691Z,979.11
2022-10-26T06:01:03.884Z,979.14
2022-10-26T06:02:03.887Z,979.34
2022-10-26T06:03:03.781Z,979.23
2022-10-26T06:04:03.709Z,979.14
2022-10-26T06:05:03.818Z,979.20
2022-10-26T06:06:07.476Z,979.37
2022-10-26T06:07:03.722Z,979.20
2022-10-26T06:08:03.822Z,979.22
2022-10-26T06:09:03.809Z,979.11
2022-10-26T06:10:02.940Z,979.25
2022-10-26T06:11:02.980Z,979.19
2022-10-26T06:12:03.107Z,979.19
2022-10-26T06:13:03.171Z,979.11
2022-10-26T06:14:03.199Z,979.11
2022-10-26T06:15:03.180Z,979.14
2022-10-26T06:16:03.113Z,979.22
2022-10-26T06:17:03.101Z,979.22
2022-10-26T06:18:03.122Z,979.22
2022-10-26T06:19:03.303Z,979.22
2022-10-26T06:20:03.445Z,979.16
2022-10-26T06:21:03.146Z,979.22
2022-10-26T06:22:03.029Z,979.27
2022-10-26T06:23:03.109Z,979.33
2022-10-26T06:24:03.242Z,979.13
2022-10-26T06:25:03.258Z,979.27
2022-10-26T06:26:03.181Z,979.07
2022-10-26T06:27:03.320Z,979.19
2022-10-26T06:28:03.320Z,979.07
2022-10-26T06:29:03.425Z,979.13
2022-10-26T06:30:03.519Z,979.19
2022-10-26T06:31:03.445Z,979.04
2022-10-26T06:32:03.600Z,979.13
2022-10-26T06:33:24.564Z,979.13
2022-10-26T06:34:03.480Z,979.18
2022-10-26T06:35:07.437Z,979.18
2022-10-26T06:36:03.536Z,979.07
2022-10-26T06:37:03.521Z,979.27
2022-10-26T06:38:03.466Z,979.15
2022-10-26T06:39:03.586Z,979.21
2022-10-26T06:40:03.605Z,979.12
2022-10-26T06:41:03.613Z,979.23
2022-10-26T06:42:03.762Z,979.23
2022-10-26T06:43:03.644Z,979.23
2022-10-26T06:44:03.710Z,979.23
2022-10-26T06:45:03.847Z,979.23
2022-10-26T06:46:03.659Z,979.34
2022-10-26T06:47:03.735Z,979.26
2022-10-26T06:48:03.751Z,979.31
2022-10-26T06:49:03.719Z,979.26
2022-10-26T06:50:03.653Z,979.26
2022-10-26T06:51:03.652Z,979.20
2022-10-26T06:52:03.662Z,979.14
2022-10-26T06:53:03.755Z,979.20
2022-10-26T06:54:03.645Z,979.23
2022-10-26T06:55:03.705Z,979.28
2022-10-26T06:56:03.718Z,979.28
2022-10-26T06:57:04.037Z,979.25
2022-10-26T06:58:03.037Z,979.31
2022-10-26T06:59:07.015Z,979.19
2022-10-26T07:00:02.948Z,979.28
2022-10-26T07:01:03.026Z,979.22
2022-10-26T07:02:06.908Z,979.22
2022-10-26T07:03:03.222Z,979.27
2022-10-26T07:04:02.977Z,979.30
2022-10-26T07:05:03.114Z,979.33
2022-10-26T07:06:03.113Z,979.24
2022-10-26T07:07:03.324Z,979.27
2022-10-26T07:08:03.212Z,979.47
2022-10-26T07:09:03.283Z,979.18
2022-10-26T07:10:03.262Z,979.27
2022-10-26T07:11:03.356Z,979.27
2022-10-26T07:12:03.323Z,979.24
2022-10-26T07:13:03.348Z,979.27
2022-10-26T07:14:02.929Z,979.32
2022-10-26T07:15:03.205Z,979.29
2022-10-26T07:16:03.002Z,979.32
2022-10-26T07:17:03.100Z,979.38
2022-10-26T07:18:03.233Z,979.41
2022-10-26T07:19:03.270Z,979.21
2022-10-26T07:20:03.266Z,979.38
2022-10-26T07:21:03.403Z,979.40
2022-10-26T07:22:03.362Z,979.29
2022-10-26T07:23:03.391Z,979.29
2022-10-26T07:24:03.551Z,979.34
2022-10-26T07:25:03.822Z,979.34
2022-10-26T07:26:03.857Z,979.40
2022-10-26T07:27:03.685Z,979.51
2022-10-26T07:28:03.753Z,979.31
2022-10-26T07:29:03.863Z,979.37
2022-10-26T07:30:03.718Z,979.39
2022-10-26T07:31:03.829Z,979.51
2022-10-26T07:32:03.897Z,979.45
2022-10-26T07:33:03.898Z,979.50
2022-10-26T07:34:03.781Z,979.45
2022-10-26T07:35:03.953Z,979.53
2022-10-26T07:36:04.009Z,979.47
2022-10-26T07:37:03.333Z,979.36
2022-10-26T07:38:03.420Z,979.41
2022-10-26T07:39:03.708Z,979.38
2022-10-26T07:40:07.269Z,979.55
2022-10-26T07:41:03.747Z,979.67
2022-10-26T07:42:03.658Z,979.52
2022-10-26T07:43:03.658Z,979.58
2022-10-26T07:44:03.582Z,979.63
2022-10-26T07:45:03.563Z,979.46
2022-10-26T07:46:03.675Z,979.63
2022-10-26T07:47:03.595Z,979.49
2022-10-26T07:48:03.794Z,979.49
2022-10-26T07:49:03.681Z,979.60
2022-10-26T07:50:03.691Z,979.49
2022-10-26T07:51:03.736Z,979.51
2022-10-26T07:52:03.723Z,979.60
2022-10-26T07:53:03.670Z,979.51
2022-10-26T07:54:03.600Z,979.54
2022-10-26T07:55:03.596Z,979.37
2022-10-26T07:56:03.818Z,979.48
2022-10-26T07:58:03.823Z,979.59
2022-10-26T07:59:03.719Z,979.59
2022-10-26T08:00:03.817Z,979.53
2022-10-26T08:01:03.081Z,979.65
2022-10-26T08:02:03.184Z,979.62
2022-10-26T08:03:02.920Z,979.68
2022-10-26T08:04:02.902Z,979.53
2022-10-26T08:05:03.020Z,979.50
2022-10-26T08:06:03.259Z,979.64
2022-10-26T08:07:03.781Z,979.56
2022-10-26T08:08:03.769Z,979.58
2022-10-26T08:09:03.706Z,979.58
2022-10-26T08:10:03.839Z,979.58
2022-10-26T08:11:03.847Z,979.67
2022-10-26T08:12:03.877Z,979.64
2022-10-26T08:13:03.869Z,979.61
2022-10-26T08:14:03.848Z,979.64
2022-10-26T08:15:03.858Z,979.55
2022-10-26T08:16:03.113Z,979.75
2022-10-26T08:17:04.000Z,979.66
2022-10-26T08:18:03.111Z,979.72
2022-10-26T08:19:03.435Z,979.55
2022-10-26T08:20:03.119Z,979.60
2022-10-26T08:21:13.630Z,979.77
2022-10-26T08:22:03.259Z,979.66
2022-10-26T08:23:03.172Z,979.65
2022-10-26T08:24:03.141Z,979.63
2022-10-26T08:25:03.098Z,979.51
2022-10-26T08:26:03.212Z,979.62
2022-10-26T08:27:03.163Z,979.68
2022-10-26T08:28:03.302Z,979.59
2022-10-26T08:29:03.212Z,979.56
2022-10-26T08:30:03.383Z,979.48
2022-10-26T08:31:03.446Z,979.68
2022-10-26T08:32:03.429Z,979.62
2022-10-26T08:33:03.370Z,979.73
2022-10-26T08:34:03.657Z,979.65
2022-10-26T08:35:03.642Z,979.62
2022-10-26T08:36:03.623Z,979.70
2022-10-26T08:37:03.636Z,979.76
2022-10-26T08:38:03.676Z,979.61
2022-10-26T08:39:03.800Z,979.61
2022-10-26T08:40:03.845Z,979.61
2022-10-26T08:41:03.861Z,979.61
2022-10-26T08:42:03.859Z,979.49
2022-10-26T08:43:03.872Z,979.55
2022-10-26T08:44:03.040Z,979.52
2022-10-26T08:45:03.036Z,979.49
2022-10-26T08:46:03.070Z,979.46
2022-10-26T08:47:03.046Z,979.66
2022-10-26T08:48:03.039Z,979.71
2022-10-26T08:49:03.029Z,979.57
2022-10-26T08:50:03.113Z,979.48
2022-10-26T08:51:03.127Z,979.45
2022-10-26T08:52:03.049Z,979.51
2022-10-26T08:53:03.300Z,979.56
2022-10-26T08:54:03.114Z,979.65
2022-10-26T08:55:03.140Z,979.68
2022-10-26T08:56:03.105Z,979.53
2022-10-26T08:57:02.938Z,979.70
2022-10-26T08:58:02.988Z,979.64
2022-10-26T08:59:03.059Z,979.56
2022-10-26T09:00:03.144Z,979.58
2022-10-26T09:01:03.259Z,979.70
2022-10-26T09:02:03.345Z,979.81
2022-10-26T09:03:03.159Z,979.49
2022-10-26T09:04:03.208Z,979.66
2022-10-26T09:05:03.173Z,979.66
2022-10-26T09:06:03.258Z,979.69
2022-10-26T09:07:03.376Z,979.78
2022-10-26T09:08:03.342Z,979.77
2022-10-26T09:09:03.426Z,979.88
2022-10-26T09:10:03.487Z,979.74
2022-10-26T09:11:03.581Z,979.80
2022-10-26T09:12:03.673Z,979.80
2022-10-26T09:13:03.663Z,979.83
2022-10-26T09:14:03.743Z,979.83
2022-10-26T09:15:03.842Z,979.85
2022-10-26T09:16:02.916Z,979.96
2022-10-26T09:17:03.093Z,979.85
2022-10-26T09:18:03.081Z,979.82
2022-10-26T09:19:03.575Z,979.74
2022-10-26T09:20:03.224Z,979.87
2022-10-26T09:21:03.158Z,979.96
2022-10-26T09:22:03.159Z,979.79
2022-10-26T09:23:03.180Z,979.96
2022-10-26T09:24:03.891Z,979.77
2022-10-26T09:25:07.915Z,979.90
2022-10-26T09:26:03.024Z,979.74
2022-10-26T09:27:03.150Z,979.95
2022-10-26T09:28:03.130Z,979.93
2022-10-26T09:29:03.191Z,979.87
2022-10-26T09:30:03.320Z,979.87
2022-10-26T09:31:03.245Z,979.98
2022-10-26T09:32:02.996Z,979.85
2022-10-26T09:33:02.966Z,979.85
2022-10-26T09:34:02.939Z,979.89
2022-10-26T09:35:03.882Z,979.92
2022-10-26T09:36:02.910Z,979.95
2022-10-26T09:37:02.878Z,979.89
2022-10-26T09:38:02.973Z,979.95
2022-10-26T09:39:03.118Z,979.92
2022-10-26T09:40:03.030Z,979.89
2022-10-26T09:41:03.120Z,979.98
2022-10-26T09:42:03.094Z,979.89
2022-10-26T09:43:02.974Z,980.01
2022-10-26T09:44:03.103Z,979.98
2022-10-26T09:45:03.247Z,980.01
2022-10-26T09:46:03.337Z,980.01
2022-10-26T09:47:03.396Z,980.01
2022-10-26T09:48:07.381Z,980.03
2022-10-26T09:50:03.481Z,980.06
2022-10-26T09:51:05.289Z,980.09
2022-10-26T09:52:03.508Z,980.15
2022-10-26T09:53:03.273Z,980.18
2022-10-26T09:54:03.316Z,980.00
2022-10-26T09:55:03.178Z,980.22
2022-10-26T09:56:03.258Z,980.12
2022-10-26T09:57:03.321Z,980.28
2022-10-26T09:58:03.459Z,980.22
2022-10-26T09:59:03.287Z,980.00
2022-10-26T10:00:03.319Z,980.22
2022-10-26T10:01:03.376Z,980.06
2022-10-26T10:02:03.376Z,980.17
2022-10-26T10:03:03.499Z,980.14
2022-10-26T10:04:03.468Z,980.17
2022-10-26T10:05:03.542Z,980.14
2022-10-26T10:06:03.684Z,980.22
2022-10-26T10:07:03.676Z,980.17
2022-10-26T10:08:03.578Z,980.08
2022-10-26T10:09:03.644Z,980.28
2022-10-26T10:10:03.704Z,980.08
2022-10-26T10:11:03.638Z,980.33
2022-10-26T10:12:03.774Z,980.27
2022-10-26T10:13:03.919Z,980.33
2022-10-26T10:14:03.901Z,980.17
2022-10-26T10:15:03.870Z,980.17
2022-10-26T10:16:03.913Z,980.14
2022-10-26T10:17:04.080Z,980.17
2022-10-26T10:18:03.821Z,980.27
2022-10-26T10:19:03.780Z,980.36
2022-10-26T10:20:03.321Z,980.30
2022-10-26T10:21:03.272Z,980.30
2022-10-26T10:22:03.259Z,980.38
2022-10-26T10:23:03.244Z,980.35
2022-10-26T10:24:03.272Z,980.35
2022-10-26T10:25:03.165Z,980.27
2022-10-26T10:26:03.188Z,980.41
2022-10-26T10:27:03.241Z,980.30
2022-10-26T10:28:03.268Z,980.35
2022-10-26T10:29:03.340Z,980.44
2022-10-26T10:30:04.843Z,980.47
2022-10-26T10:31:03.650Z,980.41
2022-10-26T10:32:03.522Z,980.35
2022-10-26T10:33:03.532Z,980.46
2022-10-26T10:34:03.572Z,980.46
2022-10-26T10:35:03.590Z,980.38
2022-10-26T10:36:03.553Z,980.38
2022-10-26T10:37:03.665Z,980.35
2022-10-26T10:38:03.705Z,980.57
2022-10-26T10:39:03.751Z,980.43
2022-10-26T10:40:03.748Z,980.46
2022-10-26T10:41:03.717Z,980.49
2022-10-26T10:42:03.721Z,980.37
2022-10-26T10:43:03.766Z,980.37
2022-10-26T10:44:03.718Z,980.49
2022-10-26T10:45:03.797Z,980.29
2022-10-26T10:46:03.854Z,980.31
2022-10-26T10:47:03.842Z,980.26
2022-10-26T10:48:02.951Z,980.34
2022-10-26T10:49:02.939Z,980.34
2022-10-26T10:50:03.067Z,980.31
2022-10-26T10:51:03.069Z,980.34
2022-10-26T10:52:02.991Z,980.48
2022-10-26T10:53:03.010Z,980.31
2022-10-26T10:54:02.963Z,980.31
2022-10-26T10:55:02.955Z,980.34
2022-10-26T10:56:07.860Z,980.42
2022-10-26T10:57:03.050Z,980.40
2022-10-26T10:58:02.942Z,980.28
2022-10-26T10:59:03.262Z,980.40
2022-10-26T11:00:03.165Z,980.60
2022-10-26T11:01:03.072Z,980.51
2022-10-26T11:02:04.055Z,980.39
2022-10-26T11:03:03.003Z,980.45
2022-10-26T11:04:03.059Z,980.45
2022-10-26T11:05:03.252Z,980.39
2022-10-26T11:06:03.408Z,980.42
2022-10-26T11:07:03.401Z,980.48
2022-10-26T11:08:03.409Z,980.42
2022-10-26T11:09:03.458Z,980.39
2022-10-26T11:10:03.446Z,980.42
2022-10-26T11:11:03.482Z,980.45
2022-10-26T11:12:03.538Z,980.53
2022-10-26T11:13:03.668Z,980.50
2022-10-26T11:14:03.551Z,980.50
2022-10-26T11:15:03.554Z,980.53
2022-10-26T11:16:03.529Z,980.53
2022-10-26T11:17:03.548Z,980.53
2022-10-26T11:18:03.654Z,980.39
2022-10-26T11:19:03.643Z,980.47
2022-10-26T11:20:03.760Z,980.36
2022-10-26T11:21:03.750Z,980.36
2022-10-26T11:22:03.693Z,980.33
2022-10-26T11:24:03.963Z,980.41
2022-10-26T11:25:03.744Z,980.35
2022-10-26T11:26:03.831Z,980.27
2022-10-26T11:27:02.972Z,980.24
2022-10-26T11:28:03.923Z,980.27
2022-10-26T11:29:03.943Z,980.29
2022-10-26T11:30:03.847Z,980.38
2022-10-26T11:31:03.765Z,980.49
2022-10-26T11:32:03.901Z,980.41
2022-10-26T11:33:03.825Z,980.55
2022-10-26T11:34:03.931Z,980.49
2022-10-26T11:35:03.816Z,980.38
2022-10-26T11:36:02.937Z,980.43
2022-10-26T11:37:02.948Z,980.35
2022-10-26T11:38:03.085Z,980.49
2022-10-26T11:39:06.856Z,980.52
2022-10-26T11:40:03.086Z,980.43
2022-10-26T11:41:03.163Z,980.46
2022-10-26T11:42:03.176Z,980.51
2022-10-26T11:43:03.679Z,980.40
2022-10-26T11:44:03.853Z,980.51
2022-10-26T11:45:03.776Z,980.45
2022-10-26T11:46:03.861Z,980.43
2022-10-26T11:47:03.871Z,980.57
2022-10-26T11:48:02.994Z,980.51
2022-10-26T11:49:02.881Z,980.45
2022-10-26T11:50:03.086Z,980.48
2022-10-26T11:51:03.600Z,980.45
2022-10-26T11:52:03.475Z,980.51
2022-10-26T11:53:03.552Z,980.53
2022-10-26T11:54:03.566Z,980.62
2022-10-26T11:55:03.435Z,980.59
2022-10-26T11:56:03.624Z,980.59
2022-10-26T11:57:03.563Z,980.53
2022-10-26T11:58:03.592Z,980.53
2022-10-26T11:59:03.780Z,980.58
2022-10-26T12:00:03.660Z,980.55
2022-10-26T12:01:03.770Z,980.47
2022-10-26T12:02:03.778Z,980.50
2022-10-26T12:03:03.792Z,980.67
2022-10-26T12:04:03.819Z,980.75
2022-10-26T12:05:03.818Z,980.64
2022-10-26T12:06:03.979Z,980.58
2022-10-26T12:07:03.816Z,980.61
2022-10-26T12:08:03.887Z,980.63
2022-10-26T12:09:02.934Z,980.58
2022-10-26T12:10:03.067Z,980.58
2022-10-26T12:11:03.113Z,980.60
2022-10-26T12:12:03.065Z,980.63
2022-10-26T12:13:02.982Z,980.63
2022-10-26T12:14:02.944Z,980.66
2022-10-26T12:15:02.962Z,980.54
2022-10-26T12:16:04.907Z,980.54
2022-10-26T12:17:03.124Z,980.57
2022-10-26T12:18:03.169Z,980.69
2022-10-26T12:19:03.106Z,980.66
2022-10-26T12:20:03.122Z,980.66
2022-10-26T12:21:03.146Z,980.60
2022-10-26T12:22:03.051Z,980.63
2022-10-26T12:23:03.108Z,980.51
2022-10-26T12:24:03.136Z,980.57
2022-10-26T12:25:03.143Z,980.60
2022-10-26T12:26:03.076Z,980.57
2022-10-26T12:27:03.024Z,980.71
2022-10-26T12:28:03.091Z,980.59
2022-10-26T12:29:03.163Z,980.68
2022-10-26T12:30:03.076Z,980.59
2022-10-26T12:31:03.037Z,980.53
2022-10-26T12:32:03.145Z,980.76
2022-10-26T12:33:03.217Z,980.62
2022-10-26T12:34:03.257Z,980.65